sensor_id;sensor_type;location;lat;lon;timestamp;temperature;humidity
22491;DHT22;11412;50.802;4.350;2022-09-09T00:01:14;15.20;99.90
22491;DHT22;11412;50.802;4.350;2022-09-09T00:03:47;15.20;99.90
22491;DHT22;11412;50.802;4.350;2022-09-09T00:06:31;15.10;99.90
22491;DHT22;11412;50.802;4.350;2022-09-09T00:11:31;15.20;99.90
22491;DHT22;11412;50.802;4.350;2022-09-09T00:14:00;15.10;99.90
22491;DHT22;11412;50.802;4.350;2022-09-09T00:16:32;15.10;99.90
22491;DHT22;11412;50.802;4.350;2022-09-09T00:19:27;15.10;99.90
22491;DHT22;11412;50.802;4.350;2022-09-09T00:24:49;15.10;99.90
22491;DHT22;11412;50.802;4.350;2022-09-09T00:27:46;15.10;99.90
22491;DHT22;11412;50.802;4.350;2022-09-09T00:30:20;15.00;99.90
22491;DHT22;11412;50.802;4.350;2022-09-09T00:32:50;15.10;99.90
22491;DHT22;11412;50.802;4.350;2022-09-09T00:38:02;15.20;99.90
22491;DHT22;11412;50.802;4.350;2022-09-09T00:40:41;15.10;99.90
22491;DHT22;11412;50.802;4.350;2022-09-09T00:43:31;15.40;99.90
22491;DHT22;11412;50.802;4.350;2022-09-09T00:46:19;15.50;99.90
22491;DHT22;11412;50.802;4.350;2022-09-09T00:58:22;15.20;99.90
22491;DHT22;11412;50.802;4.350;2022-09-09T01:00:57;15.20;99.90
22491;DHT22;11412;50.802;4.350;2022-09-09T01:03:33;15.30;99.90
22491;DHT22;11412;50.802;4.350;2022-09-09T01:08:42;15.30;99.90
22491;DHT22;11412;50.802;4.350;2022-09-09T01:11:21;15.30;99.90
22491;DHT22;11412;50.802;4.350;2022-09-09T01:13:53;15.40;99.90
22491;DHT22;11412;50.802;4.350;2022-09-09T01:16:21;15.50;99.90
22491;DHT22;11412;50.802;4.350;2022-09-09T01:18:49;15.60;99.90
22491;DHT22;11412;50.802;4.350;2022-09-09T01:26:48;15.70;99.90
22491;DHT22;11412;50.802;4.350;2022-09-09T01:29:17;15.70;99.90
22491;DHT22;11412;50.802;4.350;2022-09-09T01:32:01;15.60;99.90
22491;DHT22;11412;50.802;4.350;2022-09-09T01:34:33;15.70;99.90
22491;DHT22;11412;50.802;4.350;2022-09-09T01:37:10;15.80;99.90
22491;DHT22;11412;50.802;4.350;2022-09-09T01:39:38;15.80;99.90
22491;DHT22;11412;50.802;4.350;2022-09-09T01:42:07;15.70;99.90
22491;DHT22;11412;50.802;4.350;2022-09-09T01:44:34;15.70;99.90
22491;DHT22;11412;50.802;4.350;2022-09-09T01:47:01;15.80;99.90
22491;DHT22;11412;50.802;4.350;2022-09-09T01:49:26;15.80;99.90
22491;DHT22;11412;50.802;4.350;2022-09-09T01:51:54;15.80;99.90
22491;DHT22;11412;50.802;4.350;2022-09-09T01:54:23;15.90;99.90
22491;DHT22;11412;50.802;4.350;2022-09-09T01:57:11;15.80;99.90
22491;DHT22;11412;50.802;4.350;2022-09-09T02:02:13;15.70;99.90
22491;DHT22;11412;50.802;4.350;2022-09-09T02:04:49;15.80;99.90
22491;DHT22;11412;50.802;4.350;2022-09-09T02:09:50;15.90;99.90
22491;DHT22;11412;50.802;4.350;2022-09-09T02:12:18;16.00;99.90
22491;DHT22;11412;50.802;4.350;2022-09-09T02:14:55;15.90;99.90
22491;DHT22;11412;50.802;4.350;2022-09-09T02:17:27;15.90;99.90
22491;DHT22;11412;50.802;4.350;2022-09-09T02:20:09;16.00;99.90
22491;DHT22;11412;50.802;4.350;2022-09-09T02:22:37;16.00;99.90
22491;DHT22;11412;50.802;4.350;2022-09-09T02:25:07;16.00;99.90
22491;DHT22;11412;50.802;4.350;2022-09-09T02:27:33;15.90;99.90
22491;DHT22;11412;50.802;4.350;2022-09-09T02:30:01;15.80;99.90
22491;DHT22;11412;50.802;4.350;2022-09-09T02:32:28;15.70;99.90
22491;DHT22;11412;50.802;4.350;2022-09-09T02:35:03;15.70;99.90
22491;DHT22;11412;50.802;4.350;2022-09-09T02:37:35;15.80;99.90
22491;DHT22;11412;50.802;4.350;2022-09-09T02:40:07;15.60;99.90
22491;DHT22;11412;50.802;4.350;2022-09-09T02:42:42;15.60;99.90
22491;DHT22;11412;50.802;4.350;2022-09-09T02:45:11;15.70;99.90
22491;DHT22;11412;50.802;4.350;2022-09-09T02:47:52;15.90;99.90
22491;DHT22;11412;50.802;4.350;2022-09-09T02:50:57;15.90;99.90
22491;DHT22;11412;50.802;4.350;2022-09-09T02:53:28;16.00;99.90
22491;DHT22;11412;50.802;4.350;2022-09-09T02:56:05;15.80;99.90
22491;DHT22;11412;50.802;4.350;2022-09-09T02:58:33;16.00;99.90
22491;DHT22;11412;50.802;4.350;2022-09-09T03:00:59;15.80;99.90
22491;DHT22;11412;50.802;4.350;2022-09-09T03:03:26;16.00;99.90
22491;DHT22;11412;50.802;4.350;2022-09-09T03:05:52;16.00;99.90
22491;DHT22;11412;50.802;4.350;2022-09-09T03:08:18;15.80;99.90
22491;DHT22;11412;50.802;4.350;2022-09-09T03:10:43;15.60;99.90
22491;DHT22;11412;50.802;4.350;2022-09-09T03:13:09;15.90;99.90
22491;DHT22;11412;50.802;4.350;2022-09-09T03:15:35;15.70;99.90
22491;DHT22;11412;50.802;4.350;2022-09-09T03:18:02;15.60;99.90
22491;DHT22;11412;50.802;4.350;2022-09-09T03:20:29;15.70;99.90
22491;DHT22;11412;50.802;4.350;2022-09-09T03:22:55;15.70;99.90
22491;DHT22;11412;50.802;4.350;2022-09-09T03:25:22;15.50;99.90
22491;DHT22;11412;50.802;4.350;2022-09-09T03:27:53;15.60;99.90
22491;DHT22;11412;50.802;4.350;2022-09-09T03:30:25;15.60;99.90
22491;DHT22;11412;50.802;4.350;2022-09-09T03:32:51;15.70;99.90
22491;DHT22;11412;50.802;4.350;2022-09-09T03:35:17;15.60;99.90
22491;DHT22;11412;50.802;4.350;2022-09-09T03:37:43;15.60;99.90
22491;DHT22;11412;50.802;4.350;2022-09-09T03:40:09;15.80;99.90
22491;DHT22;11412;50.802;4.350;2022-09-09T03:42:36;15.80;99.90
22491;DHT22;11412;50.802;4.350;2022-09-09T03:45:06;15.80;99.90
22491;DHT22;11412;50.802;4.350;2022-09-09T03:47:33;15.90;99.90
22491;DHT22;11412;50.802;4.350;2022-09-09T03:49:58;15.80;99.90
22491;DHT22;11412;50.802;4.350;2022-09-09T03:52:24;15.90;99.90
22491;DHT22;11412;50.802;4.350;2022-09-09T03:54:52;15.80;99.90
22491;DHT22;11412;50.802;4.350;2022-09-09T03:57:18;15.80;99.90
22491;DHT22;11412;50.802;4.350;2022-09-09T03:59:44;15.80;99.90
22491;DHT22;11412;50.802;4.350;2022-09-09T04:02:09;15.90;99.90
22491;DHT22;11412;50.802;4.350;2022-09-09T04:04:35;15.80;99.90
22491;DHT22;11412;50.802;4.350;2022-09-09T04:07:01;15.80;99.90
22491;DHT22;11412;50.802;4.350;2022-09-09T04:09:27;15.80;99.90
22491;DHT22;11412;50.802;4.350;2022-09-09T04:11:53;15.90;99.90
22491;DHT22;11412;50.802;4.350;2022-09-09T04:14:19;15.90;99.90
22491;DHT22;11412;50.802;4.350;2022-09-09T04:16:45;15.90;99.90
22491;DHT22;11412;50.802;4.350;2022-09-09T04:19:12;15.90;99.90
22491;DHT22;11412;50.802;4.350;2022-09-09T04:21:42;15.80;99.90
22491;DHT22;11412;50.802;4.350;2022-09-09T04:24:08;15.80;99.90
22491;DHT22;11412;50.802;4.350;2022-09-09T04:26:35;15.80;99.90
22491;DHT22;11412;50.802;4.350;2022-09-09T04:29:03;15.80;99.90
22491;DHT22;11412;50.802;4.350;2022-09-09T04:31:29;15.90;99.90
22491;DHT22;11412;50.802;4.350;2022-09-09T04:33:55;15.90;99.90
22491;DHT22;11412;50.802;4.350;2022-09-09T04:36:21;15.70;99.90
22491;DHT22;11412;50.802;4.350;2022-09-09T04:38:47;15.80;99.90
22491;DHT22;11412;50.802;4.350;2022-09-09T04:41:14;15.90;99.90
22491;DHT22;11412;50.802;4.350;2022-09-09T04:43:40;15.90;99.90
22491;DHT22;11412;50.802;4.350;2022-09-09T04:46:06;15.70;99.90
22491;DHT22;11412;50.802;4.350;2022-09-09T04:48:32;15.70;99.90
22491;DHT22;11412;50.802;4.350;2022-09-09T04:51:00;15.70;99.90
22491;DHT22;11412;50.802;4.350;2022-09-09T04:53:26;15.80;99.90
22491;DHT22;11412;50.802;4.350;2022-09-09T04:56:00;15.80;99.90
22491;DHT22;11412;50.802;4.350;2022-09-09T04:58:26;15.80;99.90
22491;DHT22;11412;50.802;4.350;2022-09-09T05:00:52;15.90;99.90
22491;DHT22;11412;50.802;4.350;2022-09-09T05:03:17;15.90;99.90
22491;DHT22;11412;50.802;4.350;2022-09-09T05:05:43;15.90;99.90
22491;DHT22;11412;50.802;4.350;2022-09-09T05:08:10;15.70;99.90
22491;DHT22;11412;50.802;4.350;2022-09-09T05:10:38;15.90;99.90
22491;DHT22;11412;50.802;4.350;2022-09-09T05:13:03;15.90;99.90
22491;DHT22;11412;50.802;4.350;2022-09-09T05:15:30;15.90;99.90
22491;DHT22;11412;50.802;4.350;2022-09-09T05:18:01;16.00;99.90
22491;DHT22;11412;50.802;4.350;2022-09-09T05:20:27;15.90;99.90
22491;DHT22;11412;50.802;4.350;2022-09-09T05:22:54;15.90;99.90
22491;DHT22;11412;50.802;4.350;2022-09-09T05:25:20;15.90;99.90
22491;DHT22;11412;50.802;4.350;2022-09-09T05:27:47;16.00;99.90
22491;DHT22;11412;50.802;4.350;2022-09-09T05:30:13;16.10;99.90
22491;DHT22;11412;50.802;4.350;2022-09-09T05:32:38;16.00;99.90
22491;DHT22;11412;50.802;4.350;2022-09-09T05:35:04;16.20;99.90
22491;DHT22;11412;50.802;4.350;2022-09-09T05:37:31;16.30;99.90
22491;DHT22;11412;50.802;4.350;2022-09-09T05:39:56;16.20;99.90
22491;DHT22;11412;50.802;4.350;2022-09-09T05:42:23;16.30;99.90
22491;DHT22;11412;50.802;4.350;2022-09-09T05:44:49;16.20;99.90
22491;DHT22;11412;50.802;4.350;2022-09-09T05:47:16;16.20;99.90
22491;DHT22;11412;50.802;4.350;2022-09-09T05:49:42;16.20;99.90
22491;DHT22;11412;50.802;4.350;2022-09-09T05:52:08;16.10;99.90
22491;DHT22;11412;50.802;4.350;2022-09-09T05:54:35;16.00;99.90
22491;DHT22;11412;50.802;4.350;2022-09-09T05:57:03;16.10;99.90
22491;DHT22;11412;50.802;4.350;2022-09-09T05:59:29;16.10;99.90
22491;DHT22;11412;50.802;4.350;2022-09-09T06:01:54;16.30;99.90
22491;DHT22;11412;50.802;4.350;2022-09-09T06:04:20;16.20;99.90
22491;DHT22;11412;50.802;4.350;2022-09-09T06:06:49;16.20;99.90
22491;DHT22;11412;50.802;4.350;2022-09-09T06:09:15;16.20;99.90
22491;DHT22;11412;50.802;4.350;2022-09-09T06:11:41;16.20;99.90
22491;DHT22;11412;50.802;4.350;2022-09-09T06:14:08;16.20;99.90
22491;DHT22;11412;50.802;4.350;2022-09-09T06:16:34;16.40;99.90
22491;DHT22;11412;50.802;4.350;2022-09-09T06:19:03;16.40;99.90
22491;DHT22;11412;50.802;4.350;2022-09-09T06:21:34;16.40;99.90
22491;DHT22;11412;50.802;4.350;2022-09-09T06:24:02;16.50;99.90
22491;DHT22;11412;50.802;4.350;2022-09-09T06:26:33;16.50;99.90
22491;DHT22;11412;50.802;4.350;2022-09-09T06:28:59;16.50;99.90
22491;DHT22;11412;50.802;4.350;2022-09-09T06:31:27;16.40;99.90
22491;DHT22;11412;50.802;4.350;2022-09-09T06:33:56;16.60;99.90
22491;DHT22;11412;50.802;4.350;2022-09-09T06:36:23;16.60;99.90
22491;DHT22;11412;50.802;4.350;2022-09-09T06:38:49;16.60;99.90
22491;DHT22;11412;50.802;4.350;2022-09-09T06:41:17;16.50;99.90
22491;DHT22;11412;50.802;4.350;2022-09-09T06:43:44;16.40;99.90
22491;DHT22;11412;50.802;4.350;2022-09-09T06:46:21;16.40;99.90
22491;DHT22;11412;50.802;4.350;2022-09-09T06:48:50;16.50;99.90
22491;DHT22;11412;50.802;4.350;2022-09-09T06:51:20;16.50;99.90
22491;DHT22;11412;50.802;4.350;2022-09-09T06:53:49;16.50;99.90
22491;DHT22;11412;50.802;4.350;2022-09-09T06:56:24;16.60;99.90
22491;DHT22;11412;50.802;4.350;2022-09-09T06:58:51;16.70;99.90
22491;DHT22;11412;50.802;4.350;2022-09-09T07:01:26;16.70;99.90
22491;DHT22;11412;50.802;4.350;2022-09-09T07:03:54;16.80;99.90
22491;DHT22;11412;50.802;4.350;2022-09-09T07:06:31;16.80;99.90
22491;DHT22;11412;50.802;4.350;2022-09-09T07:08:59;16.90;99.90
22491;DHT22;11412;50.802;4.350;2022-09-09T07:11:30;16.90;99.90
22491;DHT22;11412;50.802;4.350;2022-09-09T07:14:00;16.80;99.90
22491;DHT22;11412;50.802;4.350;2022-09-09T07:16:26;16.80;99.90
22491;DHT22;11412;50.802;4.350;2022-09-09T07:18:57;16.90;99.90
22491;DHT22;11412;50.802;4.350;2022-09-09T07:21:28;16.90;99.90
22491;DHT22;11412;50.802;4.350;2022-09-09T07:23:54;16.90;99.90
22491;DHT22;11412;50.802;4.350;2022-09-09T07:26:22;16.70;99.90
22491;DHT22;11412;50.802;4.350;2022-09-09T07:28:49;16.90;99.90
22491;DHT22;11412;50.802;4.350;2022-09-09T07:31:21;17.10;99.90
22491;DHT22;11412;50.802;4.350;2022-09-09T07:33:48;17.00;99.90
22491;DHT22;11412;50.802;4.350;2022-09-09T07:36:17;17.00;99.90
22491;DHT22;11412;50.802;4.350;2022-09-09T07:38:45;17.00;99.90
22491;DHT22;11412;50.802;4.350;2022-09-09T07:41:14;16.90;99.90
22491;DHT22;11412;50.802;4.350;2022-09-09T07:43:42;16.80;99.90
22491;DHT22;11412;50.802;4.350;2022-09-09T07:46:10;16.80;99.90
22491;DHT22;11412;50.802;4.350;2022-09-09T07:48:36;16.60;99.90
22491;DHT22;11412;50.802;4.350;2022-09-09T07:51:11;16.60;99.90
22491;DHT22;11412;50.802;4.350;2022-09-09T07:53:38;16.60;99.90
22491;DHT22;11412;50.802;4.350;2022-09-09T07:56:12;16.70;99.90
22491;DHT22;11412;50.802;4.350;2022-09-09T07:58:39;16.70;99.90
22491;DHT22;11412;50.802;4.350;2022-09-09T08:01:11;16.80;99.90
22491;DHT22;11412;50.802;4.350;2022-09-09T08:03:37;16.80;99.90
22491;DHT22;11412;50.802;4.350;2022-09-09T08:06:05;17.00;99.90
22491;DHT22;11412;50.802;4.350;2022-09-09T08:08:33;17.10;99.90
22491;DHT22;11412;50.802;4.350;2022-09-09T08:11:07;17.20;99.90
22491;DHT22;11412;50.802;4.350;2022-09-09T08:13:34;17.40;99.90
22491;DHT22;11412;50.802;4.350;2022-09-09T08:16:09;17.40;99.90
22491;DHT22;11412;50.802;4.350;2022-09-09T08:18:35;17.60;99.90
22491;DHT22;11412;50.802;4.350;2022-09-09T08:21:15;17.50;99.90
22491;DHT22;11412;50.802;4.350;2022-09-09T08:23:43;17.50;99.90
22491;DHT22;11412;50.802;4.350;2022-09-09T08:26:23;17.40;99.90
22491;DHT22;11412;50.802;4.350;2022-09-09T08:28:51;17.40;99.90
22491;DHT22;11412;50.802;4.350;2022-09-09T08:31:20;17.50;99.90
22491;DHT22;11412;50.802;4.350;2022-09-09T08:33:46;17.50;99.90
22491;DHT22;11412;50.802;4.350;2022-09-09T08:36:15;17.60;99.90
22491;DHT22;11412;50.802;4.350;2022-09-09T08:38:41;17.50;99.90
22491;DHT22;11412;50.802;4.350;2022-09-09T08:41:25;17.40;99.90
22491;DHT22;11412;50.802;4.350;2022-09-09T08:58:25;17.30;99.90
22491;DHT22;11412;50.802;4.350;2022-09-09T09:12:00;17.20;99.90
22491;DHT22;11412;50.802;4.350;2022-09-09T09:14:29;17.20;99.90
22491;DHT22;11412;50.802;4.350;2022-09-09T09:17:01;17.10;99.90
22491;DHT22;11412;50.802;4.350;2022-09-09T09:19:30;17.00;99.90
22491;DHT22;11412;50.802;4.350;2022-09-09T09:25:23;17.00;99.90
22491;DHT22;11412;50.802;4.350;2022-09-09T09:28:17;16.80;99.90
22491;DHT22;11412;50.802;4.350;2022-09-09T09:36:15;16.90;99.90
22491;DHT22;11412;50.802;4.350;2022-09-09T09:38:56;16.90;99.90
22491;DHT22;11412;50.802;4.350;2022-09-09T09:41:40;16.90;99.90
22491;DHT22;11412;50.802;4.350;2022-09-09T09:46:47;16.90;99.90
22491;DHT22;11412;50.802;4.350;2022-09-09T09:49:13;16.90;99.90
22491;DHT22;11412;50.802;4.350;2022-09-09T09:51:39;16.90;99.90
22491;DHT22;11412;50.802;4.350;2022-09-09T09:54:26;16.90;99.90
22491;DHT22;11412;50.802;4.350;2022-09-09T09:56:53;17.00;99.90
22491;DHT22;11412;50.802;4.350;2022-09-09T10:01:53;17.00;99.90
22491;DHT22;11412;50.802;4.350;2022-09-09T10:04:21;17.00;99.90
22491;DHT22;11412;50.802;4.350;2022-09-09T10:06:49;17.00;99.90
22491;DHT22;11412;50.802;4.350;2022-09-09T10:09:27;17.00;99.90
22491;DHT22;11412;50.802;4.350;2022-09-09T10:18:02;17.00;99.90
22491;DHT22;11412;50.802;4.350;2022-09-09T10:22:35;17.10;99.90
22491;DHT22;11412;50.802;4.350;2022-09-09T10:25:21;17.10;99.90
22491;DHT22;11412;50.802;4.350;2022-09-09T10:28:10;17.20;99.90
22491;DHT22;11412;50.802;4.350;2022-09-09T10:33:16;17.40;99.90
22491;DHT22;11412;50.802;4.350;2022-09-09T10:36:17;17.50;99.90
22491;DHT22;11412;50.802;4.350;2022-09-09T10:38:57;17.60;99.90
22491;DHT22;11412;50.802;4.350;2022-09-09T10:54:33;18.00;99.90
22491;DHT22;11412;50.802;4.350;2022-09-09T10:57:11;18.10;99.90
22491;DHT22;11412;50.802;4.350;2022-09-09T10:59:47;18.20;99.90
22491;DHT22;11412;50.802;4.350;2022-09-09T11:02:27;18.30;99.90
22491;DHT22;11412;50.802;4.350;2022-09-09T11:07:39;18.30;99.90
22491;DHT22;11412;50.802;4.350;2022-09-09T11:12:45;18.20;99.90
22491;DHT22;11412;50.802;4.350;2022-09-09T11:15:35;18.30;99.90
22491;DHT22;11412;50.802;4.350;2022-09-09T11:18:03;18.30;99.90
22491;DHT22;11412;50.802;4.350;2022-09-09T11:20:29;18.50;99.90
22491;DHT22;11412;50.802;4.350;2022-09-09T11:23:02;18.40;99.90
22491;DHT22;11412;50.802;4.350;2022-09-09T11:36:25;18.50;99.90
22491;DHT22;11412;50.802;4.350;2022-09-09T11:41:35;18.50;99.90
22491;DHT22;11412;50.802;4.350;2022-09-09T11:44:11;18.50;99.90
22491;DHT22;11412;50.802;4.350;2022-09-09T11:46:39;18.40;99.90
22491;DHT22;11412;50.802;4.350;2022-09-09T11:49:22;18.30;99.90
22491;DHT22;11412;50.802;4.350;2022-09-09T11:51:50;18.40;99.90
22491;DHT22;11412;50.802;4.350;2022-09-09T11:54:30;18.50;99.90
22491;DHT22;11412;50.802;4.350;2022-09-09T11:56:56;18.60;99.90
22491;DHT22;11412;50.802;4.350;2022-09-09T11:59:24;18.60;99.90
22491;DHT22;11412;50.802;4.350;2022-09-09T12:02:03;18.50;99.90
22491;DHT22;11412;50.802;4.350;2022-09-09T12:04:40;18.50;99.90
22491;DHT22;11412;50.802;4.350;2022-09-09T12:17:29;18.60;99.90
22491;DHT22;11412;50.802;4.350;2022-09-09T12:31:27;18.60;99.90
22491;DHT22;11412;50.802;4.350;2022-09-09T12:34:08;18.60;99.90
22491;DHT22;11412;50.802;4.350;2022-09-09T12:36:35;18.70;99.90
22491;DHT22;11412;50.802;4.350;2022-09-09T12:39:27;18.90;99.90
22491;DHT22;11412;50.802;4.350;2022-09-09T12:41:55;19.10;99.90
22491;DHT22;11412;50.802;4.350;2022-09-09T12:44:23;19.20;99.90
22491;DHT22;11412;50.802;4.350;2022-09-09T12:46:50;19.30;99.90
22491;DHT22;11412;50.802;4.350;2022-09-09T12:51:55;19.50;99.90
22491;DHT22;11412;50.802;4.350;2022-09-09T12:54:22;19.60;99.90
22491;DHT22;11412;50.802;4.350;2022-09-09T12:56:49;19.60;99.90
22491;DHT22;11412;50.802;4.350;2022-09-09T12:59:27;19.80;99.90
22491;DHT22;11412;50.802;4.350;2022-09-09T13:01:59;19.60;99.90
22491;DHT22;11412;50.802;4.350;2022-09-09T13:04:25;19.50;99.90
22491;DHT22;11412;50.802;4.350;2022-09-09T13:06:51;19.50;99.90
22491;DHT22;11412;50.802;4.350;2022-09-09T13:09:17;19.50;99.90
22491;DHT22;11412;50.802;4.350;2022-09-09T13:11:55;19.60;99.90
22491;DHT22;11412;50.802;4.350;2022-09-09T13:14:33;19.70;99.90
22491;DHT22;11412;50.802;4.350;2022-09-09T13:17:05;19.70;99.90
22491;DHT22;11412;50.802;4.350;2022-09-09T13:19:38;19.70;99.90
22491;DHT22;11412;50.802;4.350;2022-09-09T13:24:47;20.00;99.90
22491;DHT22;11412;50.802;4.350;2022-09-09T13:27:39;20.20;99.90
22491;DHT22;11412;50.802;4.350;2022-09-09T13:30:27;20.40;99.90
22491;DHT22;11412;50.802;4.350;2022-09-09T13:35:32;20.40;99.90
22491;DHT22;11412;50.802;4.350;2022-09-09T13:37:58;20.60;99.90
22491;DHT22;11412;50.802;4.350;2022-09-09T13:40:26;20.80;99.90
22491;DHT22;11412;50.802;4.350;2022-09-09T13:42:56;20.90;99.90
22491;DHT22;11412;50.802;4.350;2022-09-09T13:45:24;20.90;99.90
22491;DHT22;11412;50.802;4.350;2022-09-09T13:47:53;21.00;99.90
22491;DHT22;11412;50.802;4.350;2022-09-09T13:52:51;21.30;99.90
22491;DHT22;11412;50.802;4.350;2022-09-09T13:55:19;21.10;99.90
22491;DHT22;11412;50.802;4.350;2022-09-09T13:58:03;21.00;99.90
22491;DHT22;11412;50.802;4.350;2022-09-09T14:00:33;20.70;99.90
22491;DHT22;11412;50.802;4.350;2022-09-09T14:02:59;20.50;99.90
22491;DHT22;11412;50.802;4.350;2022-09-09T14:05:30;20.50;99.90
22491;DHT22;11412;50.802;4.350;2022-09-09T14:07:57;20.50;99.90
22491;DHT22;11412;50.802;4.350;2022-09-09T14:10:23;20.70;99.90
22491;DHT22;11412;50.802;4.350;2022-09-09T14:12:49;20.60;99.90
22491;DHT22;11412;50.802;4.350;2022-09-09T14:15:14;20.60;99.90
22491;DHT22;11412;50.802;4.350;2022-09-09T14:17:40;20.50;99.90
22491;DHT22;11412;50.802;4.350;2022-09-09T14:20:07;20.40;99.90
22491;DHT22;11412;50.802;4.350;2022-09-09T14:22:35;20.20;99.90
22491;DHT22;11412;50.802;4.350;2022-09-09T14:25:01;20.20;99.90
22491;DHT22;11412;50.802;4.350;2022-09-09T14:27:27;20.20;99.90
22491;DHT22;11412;50.802;4.350;2022-09-09T14:29:53;20.30;99.90
22491;DHT22;11412;50.802;4.350;2022-09-09T14:32:19;20.20;99.90
22491;DHT22;11412;50.802;4.350;2022-09-09T14:34:46;20.30;99.90
22491;DHT22;11412;50.802;4.350;2022-09-09T14:37:15;20.30;99.90
22491;DHT22;11412;50.802;4.350;2022-09-09T14:39:42;20.30;99.90
22491;DHT22;11412;50.802;4.350;2022-09-09T14:42:13;20.40;99.90
22491;DHT22;11412;50.802;4.350;2022-09-09T14:44:39;20.50;99.90
22491;DHT22;11412;50.802;4.350;2022-09-09T14:47:06;20.40;99.90
22491;DHT22;11412;50.802;4.350;2022-09-09T14:49:34;20.30;99.90
22491;DHT22;11412;50.802;4.350;2022-09-09T14:51:59;20.60;99.90
22491;DHT22;11412;50.802;4.350;2022-09-09T14:54:25;20.80;99.90
22491;DHT22;11412;50.802;4.350;2022-09-09T14:56:51;20.80;99.90
22491;DHT22;11412;50.802;4.350;2022-09-09T14:59:16;20.80;99.90
22491;DHT22;11412;50.802;4.350;2022-09-09T15:01:42;20.70;99.90
22491;DHT22;11412;50.802;4.350;2022-09-09T15:04:10;20.50;99.90
22491;DHT22;11412;50.802;4.350;2022-09-09T15:06:37;20.50;99.90
22491;DHT22;11412;50.802;4.350;2022-09-09T15:09:04;20.60;99.90
22491;DHT22;11412;50.802;4.350;2022-09-09T15:11:36;20.50;99.90
22491;DHT22;11412;50.802;4.350;2022-09-09T15:14:04;20.60;99.90
22491;DHT22;11412;50.802;4.350;2022-09-09T15:16:30;20.70;99.90
22491;DHT22;11412;50.802;4.350;2022-09-09T15:18:59;20.80;99.90
22491;DHT22;11412;50.802;4.350;2022-09-09T15:21:33;20.70;99.90
22491;DHT22;11412;50.802;4.350;2022-09-09T15:24:00;20.60;99.90
22491;DHT22;11412;50.802;4.350;2022-09-09T15:26:26;20.60;99.90
22491;DHT22;11412;50.802;4.350;2022-09-09T15:28:52;20.40;99.90
22491;DHT22;11412;50.802;4.350;2022-09-09T15:31:23;20.40;99.90
22491;DHT22;11412;50.802;4.350;2022-09-09T15:36:24;20.40;99.90
22491;DHT22;11412;50.802;4.350;2022-09-09T15:38:51;20.30;99.90
22491;DHT22;11412;50.802;4.350;2022-09-09T15:41:18;20.40;99.90
22491;DHT22;11412;50.802;4.350;2022-09-09T15:43:45;20.20;99.90
22491;DHT22;11412;50.802;4.350;2022-09-09T15:48:44;20.20;99.90
22491;DHT22;11412;50.802;4.350;2022-09-09T15:51:10;20.20;99.90
22491;DHT22;11412;50.802;4.350;2022-09-09T15:53:39;20.40;99.90
22491;DHT22;11412;50.802;4.350;2022-09-09T15:56:06;20.30;99.90
22491;DHT22;11412;50.802;4.350;2022-09-09T15:58:33;20.30;99.90
22491;DHT22;11412;50.802;4.350;2022-09-09T16:01:06;20.30;99.90
22491;DHT22;11412;50.802;4.350;2022-09-09T16:03:37;20.30;99.90
22491;DHT22;11412;50.802;4.350;2022-09-09T16:06:04;20.40;99.90
22491;DHT22;11412;50.802;4.350;2022-09-09T16:08:34;20.30;99.90
22491;DHT22;11412;50.802;4.350;2022-09-09T16:11:14;20.10;99.90
22491;DHT22;11412;50.802;4.350;2022-09-09T16:13:42;20.10;99.90
22491;DHT22;11412;50.802;4.350;2022-09-09T16:16:12;20.10;99.90
22491;DHT22;11412;50.802;4.350;2022-09-09T16:18:43;19.90;99.90
22491;DHT22;11412;50.802;4.350;2022-09-09T16:21:15;19.80;99.90
22491;DHT22;11412;50.802;4.350;2022-09-09T16:23:41;19.80;99.90
22491;DHT22;11412;50.802;4.350;2022-09-09T16:26:10;19.70;99.90
22491;DHT22;11412;50.802;4.350;2022-09-09T16:28:36;19.10;99.90
22491;DHT22;11412;50.802;4.350;2022-09-09T16:31:05;18.60;99.90
22491;DHT22;11412;50.802;4.350;2022-09-09T16:33:31;18.40;99.90
22491;DHT22;11412;50.802;4.350;2022-09-09T16:35:57;18.10;99.90
22491;DHT22;11412;50.802;4.350;2022-09-09T16:38:22;18.00;99.90
22491;DHT22;11412;50.802;4.350;2022-09-09T16:40:48;17.90;99.90
22491;DHT22;11412;50.802;4.350;2022-09-09T16:43:15;18.10;99.90
22491;DHT22;11412;50.802;4.350;2022-09-09T16:45:44;18.20;99.90
22491;DHT22;11412;50.802;4.350;2022-09-09T16:48:11;18.10;99.90
22491;DHT22;11412;50.802;4.350;2022-09-09T16:50:37;17.80;99.90
22491;DHT22;11412;50.802;4.350;2022-09-09T16:53:04;17.70;99.90
22491;DHT22;11412;50.802;4.350;2022-09-09T16:55:32;17.80;99.90
22491;DHT22;11412;50.802;4.350;2022-09-09T16:57:58;17.70;99.90
22491;DHT22;11412;50.802;4.350;2022-09-09T17:00:23;17.80;99.90
22491;DHT22;11412;50.802;4.350;2022-09-09T17:02:49;17.70;99.90
22491;DHT22;11412;50.802;4.350;2022-09-09T17:05:14;17.50;99.90
22491;DHT22;11412;50.802;4.350;2022-09-09T17:07:40;17.50;99.90
22491;DHT22;11412;50.802;4.350;2022-09-09T17:10:06;17.40;99.90
22491;DHT22;11412;50.802;4.350;2022-09-09T17:12:32;17.40;99.90
22491;DHT22;11412;50.802;4.350;2022-09-09T17:14:58;17.50;99.90
22491;DHT22;11412;50.802;4.350;2022-09-09T17:17:25;17.50;99.90
22491;DHT22;11412;50.802;4.350;2022-09-09T17:19:52;17.60;99.90
22491;DHT22;11412;50.802;4.350;2022-09-09T17:22:18;17.50;99.90
22491;DHT22;11412;50.802;4.350;2022-09-09T17:24:45;17.50;99.90
22491;DHT22;11412;50.802;4.350;2022-09-09T17:27:11;17.40;99.90
22491;DHT22;11412;50.802;4.350;2022-09-09T17:29:38;17.30;99.90
22491;DHT22;11412;50.802;4.350;2022-09-09T17:32:04;17.30;99.90
22491;DHT22;11412;50.802;4.350;2022-09-09T17:34:30;17.30;99.90
22491;DHT22;11412;50.802;4.350;2022-09-09T17:36:56;17.20;99.90
22491;DHT22;11412;50.802;4.350;2022-09-09T17:39:22;17.20;99.90
22491;DHT22;11412;50.802;4.350;2022-09-09T17:41:48;17.20;99.90
22491;DHT22;11412;50.802;4.350;2022-09-09T17:44:14;17.20;99.90
22491;DHT22;11412;50.802;4.350;2022-09-09T17:46:42;17.40;99.90
22491;DHT22;11412;50.802;4.350;2022-09-09T17:49:16;17.50;99.90
22491;DHT22;11412;50.802;4.350;2022-09-09T17:51:45;17.50;99.90
22491;DHT22;11412;50.802;4.350;2022-09-09T17:54:15;17.30;99.90
22491;DHT22;11412;50.802;4.350;2022-09-09T17:56:42;17.30;99.90
22491;DHT22;11412;50.802;4.350;2022-09-09T17:59:10;17.20;99.90
22491;DHT22;11412;50.802;4.350;2022-09-09T18:01:39;17.20;99.90
22491;DHT22;11412;50.802;4.350;2022-09-09T18:04:07;17.10;99.90
22491;DHT22;11412;50.802;4.350;2022-09-09T18:06:37;16.90;99.90
22491;DHT22;11412;50.802;4.350;2022-09-09T18:09:06;16.90;99.90
22491;DHT22;11412;50.802;4.350;2022-09-09T18:11:34;17.00;99.90
22491;DHT22;11412;50.802;4.350;2022-09-09T18:14:03;16.90;99.90
22491;DHT22;11412;50.802;4.350;2022-09-09T18:16:32;16.80;99.90